Ana Sayfa
METAR-TAF:

METAR-TAF

Havaalanları :

Bratsk Havalimanı

Bratsk, Rusya

Enlem: 56-22-15N, Boylam: 101-41-55E, yükseklik: 490 m

Güncel hava durumu gözlemi

Rapor saat 22:30 UTC de 32 dakika önce yapıldı.
Rüzgar batı/kuzeybatıdan 6 kt
Sıcaklık 7°C
Nem 87%
Basınç 1013 hPa
Görüş mesafesi 10 km veya daha fazla

METAR: UIBB 202230Z 29003MPS 9999 NSC 07/05 Q1013 R30/CLRD60 NOSIG RMK QFE717/0956

Saat: 07:02 (23:02 UTC)

Tahmin

Rapor saat 20:00 UTC de 3 saat ve 2 dakika önce yapıldı.
Ayın 20'si saat 21 UTC'den ayın 21'si saat 21 UTC'ye kadar geçerli Tahmin
Rüzgar batıdan 6 kt ve 16 kt'a kadar ani rüzgarlar
Görüş mesafesi 10 km veya daha fazla
100 ft yükseklikte az bulutlu
5000 ft yükseklikte parçalı bulutlu, Kümülonimbus.

TAF: UIBB 202000Z 2021/2121 28003G08MPS 9999 FEW001 SCT050CB

4.000'den fazla havaalanı için hava durumu gözlemleri ve tahminleri (METAR ve TAF raporları).

Kullanılabilir istasyonlar harita üzerinde sarı ve kırmızı noktalarla gösterilir.

İstasyonun adını görmek için fareyi noktanın üzerinde gezdirin.

Sonrasında hava gözlem ve tahminlerini görmek için tıklayın.

Haritayı değiştirmek için: yaklaştırmak için siyah artı işaretli yeşil düğmeye ve uzaklaştırmak için de eksi işaretli düğmeye hızla tıklayın; bitişik haritalar için yeşil okları kullanın.


METAR-TAF: